Andreas, Pennsylvania
Current Conditions -  °F | °C
As of 11:35 AM on Sunday 21 Dec 2014 (Local Time) from KHZL Reporting Station
Overcast Overcast  
Wind Chill: 22°   Ceiling: 1800
Heat Index: 28°   Visibility: 10mi
Dew Point: 19°   Wind: 6mph
Humidity: 69%   Direction: 300°WNW
Pressure: 30.29"   Gusts: NA
Location:  40.75°N, 75.79°W
Report Text: KHZL 211635Z AUTO 30005KT 10SM OVC018 M02/M07 A3029 RMK AO2
Loading
Personal Weather Stations






























Interactive Weather Map New forecast layout! Learn more

10-Day Weather Forecast

Advertisements
Track Severe Weather on mobile